Latest Coastal Weather Observations for Devonport Airport

IDT60701

Issued at 7:42 am EDT Friday 23 February 2024 (issued every 10 minutes, with the page automatically refreshed every 10 minutes)

About coastal observations | Map of coastal stations | Coastal observations for TAS | Marine services | Other Formats
Station Details ID: 091126 Name: DEVONPORT AIRPORT Lat: -41.17 Lon: 146.43 Height: 8.0 m
Data from the previous 72 hours. | See also: Recent months at Devonport Airport
Date/Time
EDT
Wind Sea
Height
m
Swell Vis
km
Cloud Weather Temp
°C
Press
MSL
hPa
Rain since
9am
mm
Dir  Spd
kts
Gust
kts
Height
m
Period
s
Dir
23/07:30am W 16 20 - - - - 10 Partly cloudy - 15.0 1004.2 0.0
23/07:00am W 14 20 - - - - 10 Partly cloudy - 15.1 1004.0 0.0
23/06:30am W 18 23 - - - - 10 Partly cloudy - 15.3 1003.4 0.0
23/06:00am W 12 15 - - - - 10 - - 14.4 1003.0 0.0
23/05:30am WSW 13 16 - - - - 10 Partly cloudy - 14.4 1002.7 0.0
23/05:00am W 16 20 - - - - 10 Cloudy - 15.8 1002.5 0.0
23/04:30am W 17 26 - - - - 10 Cloudy - 16.2 1002.3 0.0
23/04:00am W 22 27 - - - - 10 Cloudy - 16.8 1002.2 0.0
23/03:30am WNW 19 23 - - - - 10 Partly cloudy - 17.2 1002.3 0.0
23/03:00am WNW 18 23 - - - - 10 Mostly clear - 17.1 1002.4 0.0
23/02:30am WNW 16 20 - - - - 10 Partly cloudy - 17.0 1002.5 0.0
23/02:00am W 17 21 - - - - 10 - - 17.2 1002.4 0.0
23/01:30am WNW 21 25 - - - - 10 - - 17.6 1002.3 0.0
23/01:00am WNW 21 25 - - - - 10 - - 18.2 1002.0 0.0
23/12:30am WNW 22 26 - - - - 10 - - 18.8 1001.7 0.0
23/12:00am NW 19 23 - - - - 10 - - 19.4 1001.3 0.0
 
Date/Time
EDT
Wind Sea
Height
m
Swell Vis
km
Cloud Weather Temp
°C
Press
MSL
hPa
Rain since
9am
mm
Dir  Spd
kts
Gust
kts
Height
m
Period
s
Dir
22/11:30pm WNW 19 22 - - - - 10 - - 19.6 1001.1 0.0
22/11:00pm NW 19 23 - - - - 10 - - 19.7 1001.4 0.0
22/10:30pm NW 19 24 - - - - 10 - - 20.1 1001.3 0.0
22/10:26pm NW 17 23 - - - - 10 - - 20.2 1001.2 0.0
22/10:00pm NNW 11 13 - - - - 10 - - 20.1 1001.5 0.0
22/09:30pm NNW 11 15 - - - - 10 - - 20.1 1001.7 0.0
22/09:00pm NW 11 14 - - - - 10 - - 20.2 1001.5 0.0
22/08:30pm NNW 9 12 - - - - 10 - - 20.4 1001.4 0.0
22/08:00pm N 8 10 - - - - 10 - - 21.0 1001.3 0.0
22/07:30pm NE 10 12 - - - - 10 - - 21.9 1001.2 0.0
22/07:00pm NE 11 13 - - - - 10 - - 22.8 1001.5 0.0
22/06:30pm NE 12 15 - - - - 10 - - 23.3 1001.5 0.0
22/06:00pm NE 12 14 - - - - 10 - - 24.1 1001.7 0.0
22/05:30pm NE 12 14 - - - - 10 - - 23.4 1002.0 0.0
22/05:00pm NE 11 13 - - - - 10 - - 23.7 1002.4 0.0
22/04:30pm NE 12 14 - - - - 10 - - 24.1 1002.5 0.0
22/04:00pm NE 13 15 - - - - 10 - - 24.4 1002.9 0.0
22/03:30pm NE 13 15 - - - - 10 - - 25.5 1003.4 0.0
22/03:00pm NE 14 17 - - - - 10 - - 25.0 1004.0 0.0
22/02:30pm NE 15 18 - - - - 10 - - 24.9 1004.5 0.0
22/02:00pm NE 17 20 - - - - 10 - - 25.9 1004.7 0.0
22/01:30pm ENE 19 22 - - - - 10 - - 25.1 1005.0 0.0
22/01:00pm ENE 16 20 - - - - 10 Partly cloudy - 23.5 1005.8 0.0
22/12:30pm ENE 17 21 - - - - 10 Partly cloudy - 23.3 1006.4 0.0
22/12:00pm ENE 17 21 - - - - 10 Mostly cloudy - 22.7 1007.2 0.0
22/11:30am ENE 15 19 - - - - 10 Partly cloudy - 22.7 1007.9 0.0
22/11:00am ENE 13 17 - - - - 10 Partly cloudy - 22.6 1008.4 0.0
22/10:30am ENE 13 15 - - - - 10 Partly cloudy - 22.6 1008.6 0.0
22/10:00am NE 11 13 - - - - 10 Partly cloudy - 22.3 1008.9 0.0
22/09:58am NE 10 13 - - - - 10 Partly cloudy - 22.3 1008.9 0.0
22/09:30am NE 8 10 - - - - 10 Partly cloudy - 22.2 1009.3 0.0
22/09:00am ENE 10 13 - - - - 10 Cloudy - 22.2 1009.4 0.0
22/08:30am ENE 10 12 - - - - 10 Cloudy - 21.9 1009.5 0.0
22/08:00am ENE 8 11 - - - - 10 Cloudy - 21.5 1009.8 0.0
22/07:30am ENE 7 9 - - - - 10 Cloudy - 21.2 1009.8 0.0
22/07:00am ENE 7 9 - - - - 10 Cloudy - 21.0 1009.9 0.0
22/06:30am ENE 8 11 - - - - 10 Cloudy - 20.9 1009.9 0.0
22/06:00am ENE 10 12 - - - - 10 Cloudy - 21.0 1009.9 0.0
22/05:30am ENE 10 13 - - - - 10 Partly cloudy - 21.1 1010.0 0.0
22/05:00am ENE 10 12 - - - - 10 Cloudy - 21.0 1010.3 0.0
22/04:30am ENE 10 12 - - - - 10 Partly cloudy - 21.1 1010.7 0.0
22/04:00am ENE 10 12 - - - - 10 Partly cloudy - 21.1 1011.1 0.0
22/03:42am ENE 11 15 - - - - 10 Partly cloudy - 21.1 1011.1 0.0
22/03:30am ENE 10 14 - - - - 10 Partly cloudy - 21.1 1011.2 0.0
22/03:20am ENE 11 13 - - - - 10 Partly cloudy - 21.1 1011.4 0.0
22/03:00am ENE 12 13 - - - - 10 Cloudy - 21.1 1011.5 0.0
22/02:30am ENE 11 15 - - - - 10 Partly cloudy - 21.2 1011.8 0.0
22/02:00am ENE 12 15 - - - - 10 Partly cloudy - 21.2 1012.0 0.0
22/01:30am ENE 11 14 - - - - 10 Partly cloudy - 21.3 1012.6 0.0
22/01:00am ENE 10 13 - - - - 10 Partly cloudy - 21.4 1012.8 0.0
22/12:35am ENE 10 13 - - - - 10 Partly cloudy - 21.5 1013.1 0.0
22/12:31am ENE 9 11 - - - - 10 Partly cloudy - 21.5 1013.2 0.0
22/12:30am ENE 9 11 - - - - 10 Partly cloudy - 21.5 1013.2 0.0
22/12:17am ENE 8 11 - - - - 10 Partly cloudy - 21.6 1013.5 0.0
22/12:00am E 4 6 - - - - 10 Cloudy - 21.4 1013.7 0.0
 
Date/Time
EDT
Wind Sea
Height
m
Swell Vis
km
Cloud Weather Temp
°C
Press
MSL
hPa
Rain since
9am
mm
Dir  Spd
kts
Gust
kts
Height
m
Period
s
Dir
21/11:36pm E 3 4 - - - - 10 Cloudy - 21.3 1013.7 0.0
21/11:30pm E 3 4 - - - - 10 Cloudy - 21.3 1013.8 0.0
21/11:00pm E 6 8 - - - - 10 Cloudy - 21.2 1014.0 0.0
21/10:30pm ENE 8 9 - - - - 10 Cloudy - 20.9 1014.2 0.0
21/10:00pm E 7 9 - - - - 10 Partly cloudy - 20.6 1014.5 0.0
21/09:30pm E 8 9 - - - - 10 Partly cloudy - 20.4 1014.5 0.0
21/09:00pm E 7 9 - - - - 10 Mostly cloudy - 20.4 1014.4 0.0
21/08:38pm E 7 8 - - - - 10 Partly cloudy - 20.2 1014.4 0.0
21/08:30pm ENE 7 8 - - - - 10 Partly cloudy - 20.2 1014.4 0.0
21/08:17pm ENE 8 11 - - - - 10 Partly cloudy - 20.4 1014.3 0.0
21/08:00pm ENE 9 11 - - - - 10 Partly cloudy - 20.8 1014.3 0.0
21/07:37pm ENE 11 13 - - - - 10 Partly cloudy - 21.3 1014.1 0.0
21/07:30pm ENE 10 12 - - - - 10 Partly cloudy - 21.5 1014.1 0.0
21/07:00pm NE 11 14 - - - - 10 - - 21.8 1013.9 0.0
21/06:30pm NE 12 14 - - - - 10 - - 22.2 1014.1 0.0
21/06:00pm NE 13 15 - - - - 10 - - 22.6 1014.3 0.0
21/05:30pm NE 12 15 - - - - 10 - - 23.1 1014.4 0.0
21/05:00pm NE 13 15 - - - - 10 - - 23.6 1014.3 0.0
21/04:30pm NE 13 17 - - - - 10 - - 23.4 1014.7 0.0
21/04:12pm NE 14 17 - - - - 10 Partly cloudy - 23.7 1014.7 0.0
21/04:00pm NE 14 17 - - - - 10 Partly cloudy - 24.1 1014.8 0.0
21/03:30pm NE 15 18 - - - - 10 Cloudy - 23.6 1015.1 0.0
21/03:00pm NE 16 19 - - - - 10 Mostly cloudy - 24.0 1015.5 0.0
21/02:32pm NE 17 21 - - - - 10 Partly cloudy - 24.7 1015.6 0.0
21/02:30pm NE 17 21 - - - - 10 Partly cloudy - 24.7 1015.6 0.0
21/02:00pm NE 18 21 - - - - 10 Partly cloudy - 24.9 1015.7 0.0
21/01:30pm NE 16 21 - - - - 10 - - 25.0 1016.1 0.0
21/01:00pm NE 16 19 - - - - 10 Cloudy - 25.1 1016.5 0.0
21/12:30pm NE 16 21 - - - - 10 Partly cloudy - 25.2 1016.7 0.0
21/12:00pm NE 16 20 - - - - 10 - - 25.6 1016.7 0.0
21/11:30am ENE 17 20 - - - - 10 Partly cloudy - 24.8 1017.0 0.0
21/11:08am ENE 16 20 - - - - 10 Partly cloudy - 25.0 1017.2 0.0
21/11:00am ENE 16 21 - - - - 10 Partly cloudy - 24.4 1017.3 0.0
21/10:30am ENE 12 15 - - - - 10 Partly cloudy - 23.6 1017.7 0.0
21/10:26am ENE 11 15 - - - - 10 Partly cloudy - 22.8 1017.7 0.0
21/10:13am ENE 8 11 - - - - 10 Cloudy - 22.2 1017.9 0.0
21/10:00am E 9 12 - - - - 10 Cloudy - 21.8 1017.9 0.0
21/09:30am ESE 8 10 - - - - 10 Partly cloudy - 21.4 1018.0 0.0
21/09:00am E 8 11 - - - - 10 Cloudy - 21.5 1017.7 0.2
21/08:30am SE 8 11 - - - - 10 Partly cloudy - 20.4 1017.7 0.2
21/08:00am SSE 9 12 - - - - 10 Cloudy - 19.7 1017.5 0.2
21/07:30am SSE 10 12 - - - - 10 Partly cloudy - 18.9 1017.5 0.2
21/07:00am SSE 10 13 - - - - 10 Cloudy - 18.7 1017.7 0.2
21/06:30am SSE 10 13 - - - - 10 Cloudy - 18.6 1017.3 0.2
21/06:00am SSE 10 13 - - - - 10 Cloudy - 18.5 1017.2 0.2
21/05:30am SSE 10 12 - - - - 10 Cloudy - 18.5 1017.1 0.2
21/05:00am SE 10 14 - - - - 10 Cloudy - 18.6 1017.0 0.2
21/04:30am SE 10 13 - - - - 10 Cloudy - 18.4 1017.0 0.2
21/04:08am SSE 10 13 - - - - 10 Cloudy - 18.3 1016.9 0.2
21/04:00am SSE 10 12 - - - - 10 Cloudy - 18.3 1017.0 0.2
21/03:30am SSE 10 12 - - - - 10 Cloudy - 18.2 1017.4 0.2
21/03:00am SSE 11 14 - - - - 10 Cloudy - 18.4 1017.4 0.0
21/02:30am SSE 10 13 - - - - 10 Partly cloudy - 18.2 1017.9 0.0
21/02:00am SSE 10 12 - - - - 10 Partly cloudy - 17.7 1018.2 0.0
21/01:30am SE 8 10 - - - - 10 Partly cloudy - 17.8 1018.3 0.0
21/01:00am SSE 10 12 - - - - 10 Partly cloudy - 17.0 1018.4 0.0
21/12:30am SSE 11 13 - - - - 10 Partly cloudy - 17.1 1018.6 0.0
21/12:00am SSE 11 12 - - - - 10 - - 17.3 1018.6 0.0
 
Date/Time
EDT
Wind Sea
Height
m
Swell Vis
km
Cloud Weather Temp
°C
Press
MSL
hPa
Rain since
9am
mm
Dir  Spd
kts
Gust
kts
Height
m
Period
s
Dir
20/11:30pm SSE 7 8 - - - - 10 Partly cloudy - 17.7 1019.2 0.0
20/11:00pm SSE 5 7 - - - - 10 Partly cloudy - 18.2 1019.5 0.0
20/10:30pm SE 7 8 - - - - 10 - - 18.3 1019.6 0.0
20/10:00pm ESE 7 9 - - - - 10 Partly cloudy - 19.2 1019.6 0.0
20/09:30pm E 6 9 - - - - 10 Partly cloudy - 19.8 1019.9 0.0
20/09:00pm E 3 4 - - - - 10 Cloudy - 19.7 1019.9 0.0
20/08:30pm ESE 4 4 - - - - 10 Partly cloudy - 19.5 1019.6 0.0
20/08:00pm NE 8 10 - - - - 10 Partly cloudy - 19.7 1019.3 0.0
20/07:30pm E 8 10 - - - - 10 Partly cloudy - 20.7 1019.0 0.0
20/07:00pm ENE 9 12 - - - - 10 Partly cloudy - 20.8 1018.8 0.0
20/06:30pm ENE 14 17 - - - - 10 Partly cloudy - 20.4 1018.9 0.0
20/06:00pm ENE 13 18 - - - - 10 Cloudy - 20.3 1018.9 0.0
20/05:30pm NE 18 22 - - - - 10 Cloudy - 20.0 1019.0 0.0
20/05:00pm NE 16 20 - - - - 10 Cloudy - 20.3 1019.1 0.0
20/04:30pm NE 17 21 - - - - 10 Cloudy - 20.0 1019.1 0.0
20/04:00pm NE 16 19 - - - - 10 Cloudy - 20.6 1019.2 0.0
20/03:30pm NE 18 22 - - - - 10 Cloudy - 20.5 1019.5 0.0
20/03:00pm NE 18 22 - - - - 10 Cloudy - 21.2 1019.4 0.0
20/02:30pm NE 17 21 - - - - 10 Cloudy - 21.9 1019.7 0.0
20/02:00pm NNE 15 18 - - - - 10 Cloudy - 22.0 1020.1 0.0
20/01:30pm NNE 14 17 - - - - 10 Partly cloudy - 21.9 1020.4 0.0
20/01:00pm NNE 13 17 - - - - 10 Partly cloudy - 21.5 1020.4 0.0
20/12:30pm N 9 12 - - - - 10 Partly cloudy - 21.0 1020.8 0.0
20/12:00pm NNE 9 11 - - - - 10 Mostly cloudy - 21.0 1021.2 0.0
20/11:30am N 7 9 - - - - 10 Cloudy - 20.0 1021.6 0.0
20/11:00am NNE 8 11 - - - - 10 Partly cloudy - 20.0 1021.6 0.0
20/10:30am E 7 10 - - - - 10 Partly cloudy - 21.0 1021.8 0.0
20/10:00am ESE 8 12 - - - - 10 Partly cloudy - 20.3 1021.9 0.0
20/09:30am ESE 7 11 - - - - 10 Cloudy - 19.4 1021.9 0.0
20/09:00am SE 7 9 - - - - 10 Cloudy - 17.7 1022.2 0.0
20/08:30am SE 7 9 - - - - 10 Cloudy - 17.4 1022.1 0.0
20/08:00am SE 7 9 - - - - 10 Cloudy - 16.9 1022.0 0.0

Other formats

Comma delimited format used in spreadsheet applications
http://www.bom.gov.au/fwo/IDT60701/IDT60701.95960.axf

JavaScript Object Notation format (JSON) in row-major order
http://www.bom.gov.au/fwo/IDT60701/IDT60701.95960.json

Data quality

Most of these data are generated automatically and are frequently updated. Quality checks on data are not normally performed. It is possible for incorrect values to appear. Refer to information at About Latest Weather Observations and please check the disclaimer before using these data.